Nabesna, Alaska
Current Conditions -  °F | °C
As of 9:53 PM on Friday 24 Oct 2014 (Local Time) from PAOR Reporting Station
Light Snow Light Snow  
Wind Chill: 23°   Ceiling: 1800
Heat Index: 23°   Visibility: 5mi
Dew Point: 20°   Wind: 0mph
Humidity: 88%   Direction: NA
Pressure: 29.87"   Gusts: NA
Location:  62.4°N, 143°W
Report Text: PAOR 250553Z 00000KT 5SM -SN BKN018 OVC037 M05/M07 A2987 RMK AO2 SNE0456B22 SLP156 4/001 T10501067 11033 21050 53008
Loading
Personal Weather Stations






























Interactive Weather Map
Tropical Storm Tracking
New forecast layout! Learn more

10-Day Weather Forecast

Advertisements
Track Severe Weather on mobile